Terminal Aerodrome Forecast
Issued by NWS Knoxville/Tri Cities, TN

Home | Current Version | Previous Version | Text Only | Print | Product List | Glossary On
Versions: 1 2 3 4 5 6 7 8 9 10 11 12 13 14 15 16 17 18 19 20 21 22 23 24 25 26 27 28 29 30 31 32 33 34 35 36 37 38 39 40
121
FTUS44 KMRX 101121
TAFCHA
TAF
KCHA 101121Z 1012/1112 30009KT P6SM -SN OVC040
     FM101400 29009KT P6SM BKN040
     FM101700 29011KT P6SM SCT035 BKN150
     FM110100 VRB03KT P6SM SCT050 OVC080
     FM110700 00000KT P6SM OVC050=

USA.gov is the U.S. government's official web portal to all federal, state and local government web resources and services.